createdAt,value
2023-04-02T00:00:18.540Z,7.19
2023-04-02T00:03:09.481Z,7.21
2023-04-02T00:05:51.188Z,7.21
2023-04-02T00:08:27.437Z,7.23
2023-04-02T00:10:59.878Z,7.25
2023-04-02T00:13:35.498Z,7.27
2023-04-02T00:16:08.981Z,7.28
2023-04-02T00:18:43.240Z,7.29
2023-04-02T00:21:20.324Z,7.31
2023-04-02T00:23:49.258Z,7.33
2023-04-02T00:26:32.164Z,7.34
2023-04-02T00:29:03.927Z,7.36
2023-04-02T00:31:35.199Z,7.38
2023-04-02T00:34:07.816Z,7.40
2023-04-02T00:36:38.645Z,7.40
2023-04-02T00:39:13.645Z,7.41
2023-04-02T00:41:46.862Z,7.42
2023-04-02T00:44:21.734Z,7.41
2023-04-02T00:46:53.557Z,7.39
2023-04-02T00:49:27.888Z,7.39
2023-04-02T00:52:01.651Z,7.40
2023-04-02T00:54:37.987Z,7.39
2023-04-02T00:57:17.531Z,7.37
2023-04-02T00:59:56.928Z,7.36
2023-04-02T01:02:30.609Z,7.35
2023-04-02T01:05:02.858Z,7.33
2023-04-02T01:07:47.928Z,7.31
2023-04-02T01:10:43.011Z,7.30
2023-04-02T01:13:23.838Z,7.25
2023-04-02T01:15:58.457Z,7.23
2023-04-02T01:18:46.082Z,7.21
2023-04-02T01:21:21.969Z,7.18
2023-04-02T01:24:01.905Z,7.14
2023-04-02T01:26:50.962Z,7.11
2023-04-02T01:29:22.333Z,7.09
2023-04-02T01:31:53.677Z,7.09
2023-04-02T01:34:27.334Z,7.10
2023-04-02T01:37:07.402Z,7.09
2023-04-02T01:39:46.886Z,7.09
2023-04-02T01:42:21.679Z,7.09
2023-04-02T01:44:53.006Z,7.09
2023-04-02T01:47:25.534Z,7.10
2023-04-02T01:49:59.054Z,7.09
2023-04-02T01:52:39.089Z,7.08
2023-04-02T01:55:12.848Z,7.05
2023-04-02T01:57:44.705Z,7.03
2023-04-02T02:00:18.832Z,7.03
2023-04-02T02:02:51.582Z,7.00
2023-04-02T02:05:24.003Z,6.97
2023-04-02T02:07:56.391Z,6.98
2023-04-02T02:10:29.889Z,6.99
2023-04-02T02:13:00.922Z,6.99
2023-04-02T02:15:34.452Z,6.96
2023-04-02T02:18:06.867Z,6.92
2023-04-02T02:20:37.969Z,6.87
2023-04-02T02:23:10.384Z,6.85
2023-04-02T02:25:42.206Z,6.87
2023-04-02T02:28:16.502Z,6.91
2023-04-02T02:30:48.114Z,6.94
2023-04-02T02:33:22.459Z,6.97
2023-04-02T02:35:57.441Z,6.97
2023-04-02T02:38:51.843Z,6.95
2023-04-02T02:41:29.192Z,6.89
2023-04-02T02:44:03.087Z,6.84
2023-04-02T02:46:34.554Z,6.78
2023-04-02T02:49:05.950Z,6.75
2023-04-02T02:51:43.062Z,6.70
2023-04-02T02:54:13.778Z,6.63
2023-04-02T02:56:48.043Z,6.60
2023-04-02T02:59:19.308Z,6.63
2023-04-02T03:01:49.710Z,6.70
2023-04-02T03:04:23.371Z,6.76
2023-04-02T03:06:55.970Z,6.84
2023-04-02T03:09:34.887Z,6.93
2023-04-02T03:12:09.662Z,7.03
2023-04-02T03:14:43.986Z,7.12
2023-04-02T03:17:19.136Z,7.16
2023-04-02T03:19:53.075Z,7.20
2023-04-02T03:22:27.054Z,7.24
2023-04-02T03:25:00.533Z,7.28
2023-04-02T03:27:34.998Z,7.34
2023-04-02T03:30:28.678Z,7.40
2023-04-02T03:33:02.673Z,7.44
2023-04-02T03:35:39.831Z,7.43
2023-04-02T03:38:17.360Z,7.42
2023-04-02T03:41:00.110Z,7.42
2023-04-02T03:43:33.375Z,7.41
2023-04-02T03:46:10.775Z,7.42
2023-04-02T03:48:43.420Z,7.44
2023-04-02T03:51:18.655Z,7.47
2023-04-02T03:53:51.544Z,7.49
2023-04-02T03:56:28.307Z,7.53
2023-04-02T03:59:06.310Z,7.55
2023-04-02T04:01:42.960Z,7.57
2023-04-02T04:04:16.966Z,7.58
2023-04-02T04:06:52.122Z,7.60
2023-04-02T04:09:26.086Z,7.63
2023-04-02T04:12:02.899Z,7.67
2023-04-02T04:14:38.369Z,7.70
2023-04-02T04:17:15.511Z,7.69
2023-04-02T04:19:49.385Z,7.67
2023-04-02T04:22:21.329Z,7.65
2023-04-02T04:24:51.728Z,7.63
2023-04-02T04:27:33.315Z,7.64
2023-04-02T04:30:05.695Z,7.62
2023-04-02T04:32:38.804Z,7.61
2023-04-02T04:35:17.167Z,7.60
2023-04-02T04:37:49.548Z,7.61
2023-04-02T04:40:23.484Z,7.63
2023-04-02T04:42:56.242Z,7.65
2023-04-02T04:45:36.922Z,7.68
2023-04-02T04:48:14.328Z,7.70
2023-04-02T04:50:51.447Z,7.72
2023-04-02T04:53:24.891Z,7.78
2023-04-02T04:56:01.330Z,7.86
2023-04-02T04:58:41.630Z,7.93
2023-04-02T05:01:14.659Z,7.97
2023-04-02T05:03:47.397Z,8.00
2023-04-02T05:06:24.615Z,8.08
2023-04-02T05:08:58.293Z,8.18
2023-04-02T05:11:33.017Z,8.31
2023-04-02T05:14:06.302Z,8.42
2023-04-02T05:16:40.748Z,8.50
2023-04-02T05:19:14.920Z,8.54
2023-04-02T05:21:48.143Z,8.58
2023-04-02T05:24:44.969Z,8.63
2023-04-02T05:27:24.087Z,8.70
2023-04-02T05:30:00.217Z,8.81
2023-04-02T05:32:32.790Z,8.97
2023-04-02T05:35:06.281Z,9.09
2023-04-02T05:37:36.838Z,9.15
2023-04-02T05:40:16.241Z,9.17
2023-04-02T05:42:50.294Z,9.19
2023-04-02T05:45:26.882Z,9.11
2023-04-02T05:48:01.974Z,9.11
2023-04-02T05:50:37.081Z,9.15
2023-04-02T05:53:11.931Z,9.27
2023-04-02T05:55:51.892Z,9.41
2023-04-02T06:01:12.500Z,9.74
2023-04-02T06:03:47.610Z,10.05
2023-04-02T06:06:23.871Z,10.31
2023-04-02T06:08:59.655Z,10.53
2023-04-02T06:11:32.454Z,10.73
2023-04-02T06:14:04.573Z,11.15
2023-04-02T06:16:37.990Z,11.94
2023-04-02T06:19:11.794Z,12.77
2023-04-02T06:21:46.860Z,13.36
2023-04-02T06:24:19.260Z,13.63
2023-04-02T06:26:54.244Z,13.73
2023-04-02T06:29:29.848Z,13.77
2023-04-02T06:32:02.216Z,13.84
2023-04-02T06:34:33.330Z,13.96
2023-04-02T06:37:09.250Z,14.14
2023-04-02T06:39:39.646Z,14.39
2023-04-02T06:42:14.402Z,14.78
2023-04-02T06:44:45.412Z,14.99
2023-04-02T06:47:23.391Z,15.09
2023-04-02T06:49:57.733Z,15.28
2023-04-02T06:52:33.339Z,15.52
2023-04-02T06:55:18.057Z,15.64
2023-04-02T06:57:48.858Z,15.95
2023-04-02T07:00:29.386Z,16.56
2023-04-02T07:03:02.937Z,17.32
2023-04-02T07:05:33.547Z,18.04
2023-04-02T07:08:04.403Z,18.37
2023-04-02T07:10:36.364Z,18.57
2023-04-02T07:13:08.240Z,19.05
2023-04-02T07:15:39.382Z,19.55
2023-04-02T07:18:12.843Z,19.91
2023-04-02T07:20:43.290Z,20.41
2023-04-02T07:23:15.793Z,20.76
2023-04-02T07:25:48.240Z,21.24
2023-04-02T07:28:19.940Z,21.79
2023-04-02T07:30:52.750Z,22.63
2023-04-02T07:33:25.808Z,23.53
2023-04-02T07:35:57.703Z,23.98
2023-04-02T07:38:28.076Z,23.77
2023-04-02T07:40:58.768Z,23.07
2023-04-02T07:43:30.693Z,22.50
2023-04-02T07:46:01.515Z,22.14
2023-04-02T07:48:32.422Z,22.04
2023-04-02T07:51:04.569Z,21.82
2023-04-02T07:53:38.891Z,21.42
2023-04-02T07:56:16.417Z,20.91
2023-04-02T07:58:47.125Z,20.78
2023-04-02T08:01:20.756Z,20.61
2023-04-02T08:03:54.170Z,20.44
2023-04-02T08:06:27.211Z,20.30
2023-04-02T08:08:58.462Z,20.65
2023-04-02T08:11:31.817Z,20.99
2023-04-02T08:14:03.009Z,20.95
2023-04-02T08:16:47.766Z,20.42
2023-04-02T08:19:20.221Z,19.82
2023-04-02T08:21:51.725Z,19.41
2023-04-02T08:24:22.607Z,19.00
2023-04-02T08:26:54.425Z,18.59
2023-04-02T08:29:29.316Z,18.16
2023-04-02T08:32:00.254Z,17.84
2023-04-02T08:34:31.703Z,17.48
2023-04-02T08:37:02.528Z,17.20
2023-04-02T08:39:35.072Z,16.98
2023-04-02T08:42:12.976Z,16.77
2023-04-02T08:44:52.954Z,16.71
2023-04-02T08:47:26.253Z,16.72
2023-04-02T08:50:00.892Z,16.74
2023-04-02T08:52:38.513Z,16.71
2023-04-02T08:55:21.100Z,16.66
2023-04-02T08:58:10.250Z,16.63
2023-04-02T09:00:52.372Z,16.70
2023-04-02T09:03:29.621Z,16.71
2023-04-02T09:06:01.140Z,16.79
2023-04-02T09:08:33.085Z,16.88
2023-04-02T09:11:11.152Z,16.97
2023-04-02T09:13:46.321Z,17.04
2023-04-02T09:16:23.430Z,17.02
2023-04-02T09:18:58.367Z,17.01
2023-04-02T09:21:39.947Z,16.92
2023-04-02T09:24:13.486Z,17.04
2023-04-02T09:26:45.012Z,17.13
2023-04-02T09:29:39.571Z,17.16
2023-04-02T09:32:22.000Z,17.34
2023-04-02T09:35:24.442Z,17.62
2023-04-02T09:38:31.837Z,17.87
2023-04-02T09:41:06.767Z,18.08
2023-04-02T09:43:39.035Z,18.26
2023-04-02T09:46:29.229Z,18.37
2023-04-02T09:49:03.787Z,18.49
2023-04-02T09:51:36.346Z,18.54
2023-04-02T09:54:17.125Z,18.59
2023-04-02T09:57:02.736Z,18.47
2023-04-02T09:59:33.398Z,18.30
2023-04-02T10:02:04.974Z,18.16
2023-04-02T10:04:44.081Z,18.10
2023-04-02T10:07:35.498Z,18.08
2023-04-02T10:10:18.520Z,18.12
2023-04-02T10:12:53.775Z,18.19
2023-04-02T10:15:28.450Z,18.21
2023-04-02T10:18:06.525Z,18.25
2023-04-02T10:20:50.586Z,18.28
2023-04-02T10:23:24.292Z,18.23
2023-04-02T10:25:59.429Z,18.11
2023-04-02T10:28:51.074Z,18.02
2023-04-02T10:31:25.751Z,17.95
2023-04-02T10:34:02.249Z,17.97
2023-04-02T10:36:45.169Z,17.99
2023-04-02T10:39:17.840Z,18.05
2023-04-02T10:41:52.904Z,18.12
2023-04-02T10:44:39.343Z,18.11
2023-04-02T10:47:27.311Z,18.12
2023-04-02T10:50:08.295Z,18.04
2023-04-02T10:52:42.364Z,18.11
2023-04-02T10:55:19.234Z,18.23
2023-04-02T10:57:50.250Z,18.39
2023-04-02T11:00:25.309Z,18.40
2023-04-02T11:02:57.815Z,18.43
2023-04-02T11:05:36.657Z,18.43
2023-04-02T11:08:11.610Z,18.36
2023-04-02T11:10:47.626Z,18.36
2023-04-02T11:13:35.988Z,18.37
2023-04-02T11:16:07.430Z,18.37
2023-04-02T11:18:38.973Z,18.44
2023-04-02T11:21:17.264Z,18.43
2023-04-02T11:24:01.095Z,18.45
2023-04-02T11:26:38.270Z,18.48
2023-04-02T11:29:25.833Z,18.51
2023-04-02T11:32:33.694Z,18.55
2023-04-02T11:35:30.945Z,18.50
2023-04-02T11:38:04.429Z,18.47
2023-04-02T11:40:51.977Z,18.46
2023-04-02T11:43:52.875Z,18.46
2023-04-02T11:46:46.652Z,18.52
2023-04-02T11:49:35.634Z,18.39
2023-04-02T11:52:20.417Z,18.35
2023-04-02T11:54:58.735Z,18.32
2023-04-02T11:57:38.178Z,18.34
2023-04-02T12:00:21.981Z,18.37
2023-04-02T12:03:03.363Z,18.31
2023-04-02T12:05:37.509Z,18.25
2023-04-02T12:08:19.082Z,18.26
2023-04-02T12:10:56.194Z,18.24
2023-04-02T12:13:53.333Z,18.16
2023-04-02T12:16:25.198Z,18.02
2023-04-02T12:18:55.700Z,17.93
2023-04-02T12:21:28.332Z,17.81
2023-04-02T12:23:59.830Z,17.61
2023-04-02T12:26:37.119Z,17.46
2023-04-02T12:29:25.956Z,17.43
2023-04-02T12:31:59.996Z,17.40
2023-04-02T12:34:31.933Z,17.29
2023-04-02T12:37:03.992Z,17.15
2023-04-02T12:39:35.159Z,17.08
2023-04-02T12:42:06.334Z,17.06
2023-04-02T12:44:37.013Z,17.01
2023-04-02T12:47:07.878Z,16.97
2023-04-02T12:49:40.140Z,16.92
2023-04-02T12:52:12.638Z,16.84
2023-04-02T12:54:48.060Z,16.71
2023-04-02T12:57:36.276Z,16.61
2023-04-02T13:00:31.791Z,16.52
2023-04-02T13:03:18.543Z,16.38
2023-04-02T13:05:53.309Z,16.21
2023-04-02T13:08:27.531Z,16.05
2023-04-02T13:11:00.156Z,15.93
2023-04-02T13:13:33.750Z,15.86
2023-04-02T13:16:20.114Z,15.82
2023-04-02T13:18:51.517Z,15.82
2023-04-02T13:21:28.440Z,15.81
2023-04-02T13:23:59.354Z,15.77
2023-04-02T13:26:30.562Z,15.70
2023-04-02T13:29:03.102Z,15.68
2023-04-02T13:31:34.425Z,15.65
2023-04-02T13:34:05.990Z,15.58
2023-04-02T13:36:38.977Z,15.39
2023-04-02T13:39:09.300Z,15.14
2023-04-02T13:41:42.886Z,14.92
2023-04-02T13:44:21.875Z,14.79
2023-04-02T13:46:52.634Z,14.66
2023-04-02T13:49:24.359Z,14.58
2023-04-02T13:51:57.938Z,14.57
2023-04-02T13:54:34.838Z,14.63
2023-04-02T13:57:13.868Z,14.64
2023-04-02T13:59:47.098Z,14.64
2023-04-02T14:02:23.014Z,14.56
2023-04-02T14:04:56.653Z,14.46
2023-04-02T14:07:41.352Z,14.32
2023-04-02T14:10:27.112Z,14.17
2023-04-02T14:13:14.284Z,14.02
2023-04-02T14:15:59.342Z,13.89
2023-04-02T14:18:46.751Z,13.81
2023-04-02T14:21:17.665Z,13.75
2023-04-02T14:24:07.453Z,13.67
2023-04-02T14:26:45.602Z,13.55
2023-04-02T14:29:20.764Z,13.45
2023-04-02T14:31:58.213Z,13.36
2023-04-02T14:34:36.953Z,13.27
2023-04-02T14:37:13.948Z,13.21
2023-04-02T14:39:50.164Z,13.16
2023-04-02T14:42:29.143Z,13.12
2023-04-02T14:45:19.723Z,13.07
2023-04-02T14:47:53.201Z,12.96
2023-04-02T14:50:28.176Z,12.81
2023-04-02T14:53:06.182Z,12.68
2023-04-02T14:55:39.762Z,12.55
2023-04-02T14:58:14.946Z,12.50
2023-04-02T15:00:50.238Z,12.48
2023-04-02T15:03:24.670Z,12.44
2023-04-02T15:05:56.926Z,12.37
2023-04-02T15:08:29.135Z,12.27
2023-04-02T15:11:05.875Z,12.18
2023-04-02T15:13:44.379Z,12.06
2023-04-02T15:16:19.387Z,11.96
2023-04-02T15:18:53.223Z,11.89
2023-04-02T15:21:55.848Z,11.81
2023-04-02T15:24:35.319Z,11.71
2023-04-02T15:27:24.940Z,11.62
2023-04-02T15:30:01.232Z,11.52
2023-04-02T15:32:40.763Z,11.42
2023-04-02T15:35:33.910Z,11.33
2023-04-02T15:38:11.021Z,11.22
2023-04-02T15:40:51.326Z,11.16
2023-04-02T15:43:25.795Z,11.11
2023-04-02T15:46:08.134Z,11.07
2023-04-02T15:48:54.051Z,11.03
2023-04-02T15:51:38.013Z,10.98
2023-04-02T15:54:20.884Z,10.93
2023-04-02T15:56:57.265Z,10.86
2023-04-02T15:59:44.733Z,10.83
2023-04-02T16:02:19.195Z,10.77
2023-04-02T16:04:54.040Z,10.70
2023-04-02T16:07:46.276Z,10.64
2023-04-02T16:10:33.901Z,10.57
2023-04-02T16:13:18.464Z,10.52
2023-04-02T16:15:51.964Z,10.48
2023-04-02T16:18:31.543Z,10.45
2023-04-02T16:21:04.788Z,10.41
2023-04-02T16:23:38.570Z,10.37
2023-04-02T16:26:27.994Z,10.33
2023-04-02T16:29:24.731Z,10.27
2023-04-02T16:32:01.392Z,10.22
2023-04-02T16:34:40.105Z,10.18
2023-04-02T16:37:15.644Z,10.15
2023-04-02T16:39:56.020Z,10.13
2023-04-02T16:42:49.539Z,10.09
2023-04-02T16:45:29.537Z,10.04
2023-04-02T16:48:14.929Z,9.99
2023-04-02T16:50:56.445Z,9.96
2023-04-02T16:57:49.259Z,9.93
2023-04-02T17:00:27.778Z,9.93
2023-04-02T17:03:15.069Z,9.95
2023-04-02T17:05:59.310Z,9.96
2023-04-02T17:08:47.560Z,9.95
2023-04-02T17:11:38.616Z,9.95
2023-04-02T17:14:23.940Z,9.96
2023-04-02T17:16:59.952Z,9.97
2023-04-02T17:19:32.272Z,9.99
2023-04-02T17:22:07.553Z,10.02
2023-04-02T17:24:41.209Z,10.03
2023-04-02T17:27:19.923Z,10.01
2023-04-02T17:29:53.528Z,9.99
2023-04-02T17:32:27.950Z,9.97
2023-04-02T17:35:00.164Z,9.95
2023-04-02T17:37:34.278Z,9.96
2023-04-02T17:40:31.783Z,9.95
2023-04-02T17:43:08.728Z,9.92
2023-04-02T17:45:45.476Z,9.91
2023-04-02T17:48:21.331Z,9.90
2023-04-02T17:50:59.570Z,9.90
2023-04-02T17:53:41.065Z,9.91
2023-04-02T17:56:33.559Z,9.92
2023-04-02T17:59:15.800Z,9.94
2023-04-02T18:01:50.707Z,9.93
2023-04-02T18:04:33.055Z,9.91
2023-04-02T18:07:13.799Z,9.91
2023-04-02T18:09:47.920Z,9.92
2023-04-02T18:12:28.587Z,9.92
2023-04-02T18:15:14.675Z,9.92
2023-04-02T18:17:50.823Z,9.89
2023-04-02T18:20:28.107Z,9.88
2023-04-02T18:23:06.193Z,9.88
2023-04-02T18:25:55.412Z,9.89
2023-04-02T18:28:38.661Z,9.89
2023-04-02T18:31:36.074Z,9.87
2023-04-02T18:34:28.403Z,9.86
2023-04-02T18:37:09.162Z,9.82
2023-04-02T18:39:47.730Z,9.80
2023-04-02T18:42:30.021Z,9.79
2023-04-02T18:45:08.626Z,9.76
2023-04-02T18:47:42.761Z,9.73
2023-04-02T18:50:18.439Z,9.70
2023-04-02T18:52:53.880Z,9.69
2023-04-02T18:55:26.896Z,9.66
2023-04-02T18:58:01.883Z,9.63
2023-04-02T19:00:36.326Z,9.59
2023-04-02T19:03:13.023Z,9.56
2023-04-02T19:05:46.907Z,9.51
2023-04-02T19:08:20.330Z,9.45
2023-04-02T19:10:53.525Z,9.38
2023-04-02T19:13:25.280Z,9.35
2023-04-02T19:16:40.122Z,9.37
2023-04-02T19:19:15.847Z,9.38
2023-04-02T19:22:00.003Z,9.41
2023-04-02T19:24:44.333Z,9.42
2023-04-02T19:27:22.800Z,9.44
2023-04-02T19:30:04.506Z,9.44
2023-04-02T19:32:41.687Z,9.44
2023-04-02T19:35:13.964Z,9.44
2023-04-02T19:37:46.848Z,9.43
2023-04-02T19:40:24.899Z,9.42
2023-04-02T19:42:56.876Z,9.39
2023-04-02T19:45:32.409Z,9.35
2023-04-02T19:48:10.472Z,9.32
2023-04-02T19:50:43.857Z,9.30
2023-04-02T19:53:14.761Z,9.26
2023-04-02T19:55:48.132Z,9.24
2023-04-02T19:58:26.649Z,9.22
2023-04-02T20:00:57.706Z,9.20
2023-04-02T20:03:28.563Z,9.18
2023-04-02T20:05:59.733Z,9.15
2023-04-02T20:08:31.522Z,9.09
2023-04-02T20:11:02.505Z,9.04
2023-04-02T20:13:33.754Z,9.00
2023-04-02T20:16:05.537Z,8.97
2023-04-02T20:18:37.396Z,8.94
2023-04-02T20:21:09.060Z,8.89
2023-04-02T20:23:39.268Z,8.85
2023-04-02T20:26:10.309Z,8.82
2023-04-02T20:28:41.304Z,8.84
2023-04-02T20:31:13.210Z,8.85
2023-04-02T20:33:45.186Z,8.87
2023-04-02T20:36:17.606Z,8.88
2023-04-02T20:38:47.978Z,8.90
2023-04-02T20:41:18.261Z,8.89
2023-04-02T20:43:49.513Z,8.87
2023-04-02T20:46:19.963Z,8.83
2023-04-02T20:48:50.475Z,8.81
2023-04-02T20:51:21.480Z,8.78
2023-04-02T20:53:51.965Z,8.72
2023-04-02T20:56:23.663Z,8.65
2023-04-02T20:58:54.486Z,8.61
2023-04-02T21:01:26.591Z,8.58
2023-04-02T21:03:57.912Z,8.54
2023-04-02T21:06:30.521Z,8.51
2023-04-02T21:09:01.077Z,8.49
2023-04-02T21:11:31.376Z,8.46
2023-04-02T21:14:01.960Z,8.43
2023-04-02T21:16:33.303Z,8.38
2023-04-02T21:19:05.942Z,8.32
2023-04-02T21:21:36.629Z,8.29
2023-04-02T21:24:09.138Z,8.28
2023-04-02T21:26:40.998Z,8.26
2023-04-02T21:29:12.866Z,8.25
2023-04-02T21:31:43.946Z,8.25
2023-04-02T21:34:16.834Z,8.27
2023-04-02T21:36:48.436Z,8.27
2023-04-02T21:39:20.975Z,8.25
2023-04-02T21:41:52.861Z,8.24
2023-04-02T21:44:24.204Z,8.22
2023-04-02T21:46:54.950Z,8.21
2023-04-02T21:49:26.063Z,8.20
2023-04-02T21:51:56.673Z,8.18
2023-04-02T21:54:27.056Z,8.13
2023-04-02T21:56:57.484Z,8.09
2023-04-02T21:59:27.910Z,8.04
2023-04-02T22:01:58.162Z,8.01
2023-04-02T22:04:30.308Z,7.95
2023-04-02T22:07:00.718Z,7.94
2023-04-02T22:09:31.149Z,7.92
2023-04-02T22:12:02.165Z,7.89
2023-04-02T22:14:32.833Z,7.85
2023-04-02T22:17:03.696Z,7.84
2023-04-02T22:19:34.266Z,7.85
2023-04-02T22:22:04.724Z,7.89
2023-04-02T22:24:35.472Z,7.94
2023-04-02T22:27:05.936Z,7.96
2023-04-02T22:29:36.554Z,8.00
2023-04-02T22:32:06.935Z,8.05
2023-04-02T22:34:39.496Z,8.06
2023-04-02T22:37:10.404Z,8.07
2023-04-02T22:39:40.728Z,8.04
2023-04-02T22:42:11.113Z,8.01
2023-04-02T22:44:41.449Z,7.98
2023-04-02T22:47:11.807Z,7.93
2023-04-02T22:49:42.210Z,7.88
2023-04-02T22:52:13.258Z,7.82
2023-04-02T22:54:43.546Z,7.77
2023-04-02T22:57:13.913Z,7.72
2023-04-02T22:59:44.253Z,7.66
2023-04-02T23:02:14.714Z,7.62
2023-04-02T23:04:45.128Z,7.58
2023-04-02T23:07:16.123Z,7.53
2023-04-02T23:09:46.388Z,7.51
2023-04-02T23:12:16.519Z,7.49
2023-04-02T23:14:46.919Z,7.50
2023-04-02T23:17:17.108Z,7.48
2023-04-02T23:19:47.350Z,7.42
2023-04-02T23:22:17.640Z,7.35
2023-04-02T23:24:48.404Z,7.29
2023-04-02T23:27:18.811Z,7.27
2023-04-02T23:29:49.387Z,7.23
2023-04-02T23:32:20.878Z,7.20
2023-04-02T23:34:51.534Z,7.17
2023-04-02T23:37:21.844Z,7.15
2023-04-02T23:39:52.599Z,7.14
2023-04-02T23:42:23.096Z,7.12
2023-04-02T23:44:53.995Z,7.09
2023-04-02T23:47:24.475Z,7.09
2023-04-02T23:49:54.719Z,7.10
2023-04-02T23:52:25.000Z,7.13
2023-04-02T23:54:55.268Z,7.16
2023-04-02T23:57:25.898Z,7.19
2023-04-02T23:59:56.000Z,7.20
